Time;durP1;ratioP1;P1;durP2;ratioP2;P2;SDS_P1;SDS_P2;PMS_P1;PMS_P2;Temp;Humidity;BMP_temperature;BMP_pressure;BME280_temperature;BME280_humidity;BME280_pressure;Samples;Min_cycle;Max_cycle;Signal;HPM_P1;HPM_P2
2023/04/07 00:02:17;;;;;;;29.25;13.75;;;;;;;1.81;100.00;98439.47;4469572;32;20160;-66
2023/04/07 00:04:45;;;;;;;24.77;13.43;;;;;;;1.73;100.00;98441.69;4469559;32;20101;-66
2023/04/07 00:07:12;;;;;;;27.02;13.02;;;;;;;1.78;100.00;98445.66;4469449;32;20439;-66
2023/04/07 00:09:40;;;;;;;30.08;13.48;;;;;;;1.81;100.00;98442.06;4469649;32;20806;-66
2023/04/07 00:12:07;;;;;;;25.00;12.68;;;;;;;1.77;100.00;98445.72;4469480;32;20096;-66
2023/04/07 00:14:35;;;;;;;24.95;13.02;;;;;;;1.81;100.00;98438.66;4469573;32;20097;-66
2023/04/07 00:17:02;;;;;;;29.05;13.13;;;;;;;1.79;100.00;98438.75;4469715;32;20555;-66
2023/04/07 00:19:29;;;;;;;25.08;12.15;;;;;;;1.76;100.00;98436.34;4469393;32;20502;-66
2023/04/07 00:21:57;;;;;;;28.60;12.60;;;;;;;1.72;100.00;98437.44;4469633;32;20137;-66
2023/04/07 00:24:24;;;;;;;31.02;14.13;;;;;;;1.74;100.00;98445.91;4469392;32;20592;-66
2023/04/07 00:27:01;;;;;;;35.22;12.98;;;;;;;1.67;100.00;98445.44;4469512;32;20080;-66
2023/04/07 00:29:28;;;;;;;26.33;13.25;;;;;;;1.65;100.00;98436.13;4469355;32;20080;-66
2023/04/07 00:31:55;;;;;;;22.50;11.07;;;;;;;1.73;100.00;98434.75;4469430;32;20112;-66
2023/04/07 00:34:22;;;;;;;29.52;13.98;;;;;;;1.70;100.00;98429.78;4469306;32;20112;-66
2023/04/07 00:36:52;;;;;;;28.27;13.85;;;;;;;1.78;100.00;98426.75;4469210;32;20184;-66
2023/04/07 00:39:20;;;;;;;25.88;12.93;;;;;;;1.76;100.00;98436.34;4469409;32;20141;-66
2023/04/07 00:41:48;;;;;;;24.75;12.43;;;;;;;1.83;100.00;98434.22;4469311;32;20198;-66
2023/04/07 00:44:15;;;;;;;22.75;13.15;;;;;;;1.78;100.00;98432.72;4469205;32;20093;-66
2023/04/07 00:46:42;;;;;;;31.70;14.02;;;;;;;1.87;100.00;98427.97;4469274;32;20100;-66
2023/04/07 00:49:12;;;;;;;22.42;11.43;;;;;;;1.85;100.00;98422.06;4469222;32;20096;-66
2023/04/07 00:51:39;;;;;;;25.30;12.35;;;;;;;1.87;100.00;98420.22;4468576;32;20142;-66
2023/04/07 00:54:06;;;;;;;28.77;13.77;;;;;;;1.88;100.00;98427.06;4467733;32;20531;-66
2023/04/07 00:56:33;;;;;;;25.55;12.40;;;;;;;1.87;100.00;98431.37;4468991;32;20615;-66
2023/04/07 00:59:03;;;;;;;24.05;12.02;;;;;;;1.78;100.00;98426.75;4469094;32;20160;-66
2023/04/07 01:01:35;;;;;;;25.23;12.20;;;;;;;1.81;100.00;98423.97;4469371;32;20104;-66
2023/04/07 01:04:12;;;;;;;26.12;12.07;;;;;;;1.85;100.00;98412.56;4469385;32;20132;-66
2023/04/07 01:06:47;;;;;;;22.17;11.48;;;;;;;1.88;100.00;98417.53;4469136;32;20759;-66
2023/04/07 01:09:26;;;;;;;26.45;12.70;;;;;;;1.86;100.00;98414.22;4469246;32;20143;-66
2023/04/07 01:12:18;;;;;;;24.37;13.48;;;;;;;1.85;100.00;98407.37;4469290;32;20763;-66
2023/04/07 01:14:51;;;;;;;21.47;11.80;;;;;;;1.76;100.00;98406.19;4468992;32;20100;-66
2023/04/07 01:17:20;;;;;;;24.87;13.13;;;;;;;1.76;100.00;98403.59;4468090;32;20104;-66
2023/04/07 01:19:58;;;;;;;26.08;12.30;;;;;;;1.80;100.00;98406.00;4468992;32;20156;-66
2023/04/07 01:22:28;;;;;;;28.38;12.77;;;;;;;1.88;100.00;98404.62;4469145;32;20176;-66
2023/04/07 01:25:19;;;;;;;22.23;11.88;;;;;;;1.85;100.00;98407.37;4467667;32;20096;-66
2023/04/07 01:28:06;;;;;;;31.92;12.90;;;;;;;1.94;100.00;98411.19;4469233;32;20128;-66
2023/04/07 01:30:37;;;;;;;25.00;12.00;;;;;;;1.88;100.00;98406.38;4468616;32;20104;-66
2023/04/07 01:33:06;;;;;;;23.05;10.50;;;;;;;1.77;100.00;98401.81;4468619;32;20156;-66
2023/04/07 01:35:34;;;;;;;25.73;11.70;;;;;;;1.85;100.00;98402.22;4467542;32;20109;-66
2023/04/07 01:38:02;;;;;;;22.50;10.85;;;;;;;1.76;100.00;98400.19;4468492;32;20478;-66
2023/04/07 01:40:32;;;;;;;20.65;11.48;;;;;;;1.75;100.00;98395.94;4468546;32;20104;-66
2023/04/07 01:43:00;;;;;;;26.08;11.30;;;;;;;1.82;100.00;98397.25;4467381;32;20156;-66
2023/04/07 01:45:28;;;;;;;25.00;11.63;;;;;;;1.78;100.00;98395.75;4468447;32;20096;-66
2023/04/07 01:47:55;;;;;;;22.27;11.05;;;;;;;1.86;100.00;98398.72;4468611;32;20604;-66
2023/04/07 01:50:23;;;;;;;21.92;10.80;;;;;;;1.83;100.00;98400.66;4468619;32;20101;-66
2023/04/07 01:52:51;;;;;;;27.40;11.95;;;;;;;1.86;100.00;98396.16;4467563;32;20092;-66
2023/04/07 01:55:19;;;;;;;23.85;11.18;;;;;;;1.92;100.00;98394.94;4466984;32;20148;-66
2023/04/07 01:57:47;;;;;;;20.77;10.20;;;;;;;1.94;100.00;98398.28;4468489;32;20123;-66
2023/04/07 02:00:15;;;;;;;25.35;11.88;;;;;;;1.87;100.00;98397.78;4468377;32;20119;-66
2023/04/07 02:02:45;;;;;;;22.75;11.57;;;;;;;1.82;100.00;98393.81;4468587;32;20092;-66
2023/04/07 02:05:14;;;;;;;24.08;11.43;;;;;;;1.75;100.00;98401.09;4468341;32;20154;-66
2023/04/07 02:08:01;;;;;;;21.35;11.15;;;;;;;1.76;100.00;98392.44;4469000;32;20105;-66
2023/04/07 02:10:34;;;;;;;20.05;11.00;;;;;;;1.78;100.00;98390.59;4469346;32;20108;-66
2023/04/07 02:13:04;;;;;;;24.27;12.10;;;;;;;1.72;100.00;98388.38;4470749;32;20085;-66
2023/04/07 02:15:32;;;;;;;20.73;11.55;;;;;;;1.72;100.00;98390.97;4470251;32;20089;-66
2023/04/07 02:18:00;;;;;;;23.40;11.12;;;;;;;1.81;100.00;98392.16;4470566;32;20158;-66
2023/04/07 02:20:28;;;;;;;19.60;11.00;;;;;;;1.77;100.00;98394.09;4470437;32;20099;-66
2023/04/07 02:22:56;;;;;;;22.23;11.57;;;;;;;1.87;100.00;98392.63;4469195;32;20084;-66
2023/04/07 02:25:25;;;;;;;25.15;12.13;;;;;;;1.83;100.00;98395.47;4468751;32;20089;-66
2023/04/07 02:27:54;;;;;;;22.40;11.75;;;;;;;1.89;100.00;98393.37;4470266;32;20150;-66
2023/04/07 02:30:21;;;;;;;19.42;10.02;;;;;;;1.79;100.00;98394.84;4469907;32;20629;-66
2023/04/07 02:32:50;;;;;;;20.98;11.30;;;;;;;1.72;100.00;98391.78;4470335;32;20093;-66
2023/04/07 02:35:17;;;;;;;24.80;11.70;;;;;;;1.65;100.00;98400.81;4470302;32;20422;-66
2023/04/07 02:37:45;;;;;;;21.17;10.40;;;;;;;1.65;100.00;98389.66;4470108;32;20104;-66
2023/04/07 02:40:13;;;;;;;22.23;11.93;;;;;;;1.62;100.00;98392.41;4470250;32;20492;-66
2023/04/07 02:42:41;;;;;;;22.65;11.20;;;;;;;1.53;100.00;98396.34;4470535;32;20168;-66
2023/04/07 02:45:09;;;;;;;27.55;12.57;;;;;;;1.49;100.00;98377.66;4470559;32;20172;-66
2023/04/07 02:47:37;;;;;;;24.92;12.75;;;;;;;1.56;100.00;98384.13;4470486;32;20176;-66
2023/04/07 02:50:05;;;;;;;25.02;12.60;;;;;;;1.50;100.00;98386.22;4470230;32;20157;-66
2023/04/07 02:52:33;;;;;;;27.45;12.95;;;;;;;1.51;100.00;98386.13;4470123;32;20118;-66
2023/04/07 02:55:02;;;;;;;24.95;12.35;;;;;;;1.48;100.00;98388.88;4470242;32;20104;-66
2023/04/07 02:57:29;;;;;;;26.20;12.73;;;;;;;1.47;100.00;98381.22;4470321;32;20101;-66
2023/04/07 02:59:57;;;;;;;24.40;12.07;;;;;;;1.54;100.00;98382.53;4470196;32;20097;-66
2023/04/07 03:02:25;;;;;;;26.50;12.68;;;;;;;1.48;100.00;98381.12;4470335;32;20165;-66
2023/04/07 03:04:52;;;;;;;29.35;12.40;;;;;;;1.50;100.00;98384.47;4470107;32;20172;-66
2023/04/07 03:07:20;;;;;;;24.08;12.70;;;;;;;1.53;100.00;98386.03;4470187;32;20109;-66
2023/04/07 03:09:48;;;;;;;28.38;14.25;;;;;;;1.53;100.00;98386.03;4470365;32;20120;-66
2023/04/07 03:12:16;;;;;;;23.45;13.93;;;;;;;1.48;100.00;98383.72;4470185;32;20092;-66
2023/04/07 03:14:43;;;;;;;28.17;13.43;;;;;;;1.38;100.00;98383.44;4469486;32;20166;-66
2023/04/07 03:17:10;;;;;;;29.75;12.95;;;;;;;1.39;100.00;98381.69;4470246;32;20123;-66
2023/04/07 03:19:38;;;;;;;28.40;14.07;;;;;;;1.46;100.00;98388.16;4469920;32;20175;-66
2023/04/07 03:22:05;;;;;;;29.02;13.90;;;;;;;1.37;100.00;98380.94;4470037;32;20529;-66
2023/04/07 03:24:32;;;;;;;26.37;12.95;;;;;;;1.42;100.00;98379.75;4470019;32;20084;-66
2023/04/07 03:27:01;;;;;;;24.33;12.77;;;;;;;1.51;100.00;98380.97;4470125;32;20119;-66
2023/04/07 03:29:29;;;;;;;27.60;13.40;;;;;;;1.56;100.00;98378.94;4470262;32;20551;-66
2023/04/07 03:31:56;;;;;;;28.70;14.20;;;;;;;1.57;100.00;98377.19;4469803;32;20474;-66
2023/04/07 03:34:24;;;;;;;23.98;13.05;;;;;;;1.68;100.00;98384.31;4470208;32;20152;-66
2023/04/07 03:36:51;;;;;;;27.35;11.88;;;;;;;1.70;100.00;98383.31;4469602;32;20115;-66
2023/04/07 03:39:19;;;;;;;27.15;12.88;;;;;;;1.67;100.00;98380.06;4469901;32;20093;-66
2023/04/07 03:41:46;;;;;;;28.58;12.98;;;;;;;1.55;100.00;98385.03;4469914;32;20123;-66
2023/04/07 03:44:13;;;;;;;25.95;13.57;;;;;;;1.52;100.00;98377.47;4469839;32;20140;-66
2023/04/07 03:46:40;;;;;;;26.98;13.32;;;;;;;1.51;100.00;98373.22;4470032;32;20104;-66
2023/04/07 03:49:08;;;;;;;26.42;12.37;;;;;;;1.51;100.00;98380.13;4468638;32;20834;-66
2023/04/07 03:51:35;;;;;;;24.95;13.02;;;;;;;1.55;100.00;98366.97;4469922;32;20171;-66
2023/04/07 03:54:04;;;;;;;24.77;12.00;;;;;;;1.58;100.00;98368.53;4469999;32;20174;-66
2023/04/07 03:56:33;;;;;;;28.67;14.32;;;;;;;1.55;100.00;98368.72;4469599;32;20085;-66
2023/04/07 03:59:00;;;;;;;29.90;13.30;;;;;;;1.59;100.00;98370.22;4469806;32;20115;-66
2023/04/07 04:01:28;;;;;;;25.67;12.65;;;;;;;1.57;100.00;98367.69;4469561;32;20115;-66
2023/04/07 04:03:56;;;;;;;27.25;13.55;;;;;;;1.54;100.00;98367.03;4469657;32;20100;-66
2023/04/07 04:06:26;;;;;;;29.15;13.70;;;;;;;1.63;100.00;98371.66;4469635;32;20129;-66
2023/04/07 04:08:53;;;;;;;25.98;13.13;;;;;;;1.76;100.00;98371.78;4469866;32;20093;-66
2023/04/07 04:11:21;;;;;;;24.92;12.07;;;;;;;1.64;100.00;98372.50;4469767;32;20127;-66
2023/04/07 04:13:50;;;;;;;30.27;13.75;;;;;;;1.64;100.00;98380.25;4468373;32;20526;-66
2023/04/07 04:16:18;;;;;;;30.25;13.52;;;;;;;1.66;100.00;98381.81;4469864;32;20168;-66
2023/04/07 04:18:46;;;;;;;21.23;11.43;;;;;;;1.61;100.00;98383.03;4469819;32;20100;-66
2023/04/07 04:21:13;;;;;;;26.45;13.35;;;;;;;1.65;100.00;98381.91;4469643;32;20116;-66
2023/04/07 04:23:40;;;;;;;37.17;14.38;;;;;;;1.73;100.00;98390.88;4469707;32;20088;-66
2023/04/07 04:26:08;;;;;;;28.92;13.27;;;;;;;1.74;100.00;98391.69;4468612;32;20101;-66
2023/04/07 04:28:36;;;;;;;29.10;14.13;;;;;;;1.74;100.00;98396.84;4469422;32;20123;-66
2023/04/07 04:31:05;;;;;;;26.73;13.27;;;;;;;1.81;100.00;98397.34;4469558;32;20100;-66
2023/04/07 04:33:35;;;;;;;27.77;14.05;;;;;;;1.87;100.00;98392.63;4469454;32;20405;-66
2023/04/07 04:36:02;;;;;;;24.40;12.55;;;;;;;1.86;100.00;98403.03;4469331;32;20115;-66
2023/04/07 04:38:32;;;;;;;27.80;12.70;;;;;;;1.98;100.00;98406.66;4469360;32;20088;-66
2023/04/07 04:40:59;;;;;;;30.58;13.60;;;;;;;2.01;100.00;98403.88;4469559;32;20107;-66
2023/04/07 04:43:27;;;;;;;26.83;13.18;;;;;;;2.00;100.00;98407.37;4469394;32;20100;-66
2023/04/07 04:45:55;;;;;;;24.90;12.10;;;;;;;1.92;100.00;98403.53;4469394;32;20136;-66
2023/04/07 04:48:23;;;;;;;27.77;13.23;;;;;;;1.98;100.00;98404.88;4469581;32;20093;-66
2023/04/07 04:50:50;;;;;;;26.87;14.07;;;;;;;1.92;100.00;98407.84;4469511;32;20115;-66
2023/04/07 04:53:17;;;;;;;21.87;11.57;;;;;;;2.05;100.00;98402.78;4469042;32;20127;-66
2023/04/07 04:55:50;;;;;;;31.95;13.93;;;;;;;2.13;100.00;98409.16;4469076;32;20097;-66
2023/04/07 04:58:20;;;;;;;26.25;13.35;;;;;;;2.09;100.00;98407.69;4469466;32;20092;-66
2023/04/07 05:00:47;;;;;;;27.23;13.48;;;;;;;2.11;100.00;98415.34;4469083;32;20166;-66
2023/04/07 05:03:14;;;;;;;27.20;12.63;;;;;;;2.17;100.00;98417.53;4468884;32;20093;-66
2023/04/07 05:05:47;;;;;;;27.00;13.05;;;;;;;2.19;100.00;98420.03;4469335;32;20592;-66
2023/04/07 05:08:16;;;;;;;25.37;12.63;;;;;;;2.19;100.00;98418.28;4469193;32;20088;-66
2023/04/07 05:10:43;;;;;;;32.22;14.55;;;;;;;2.22;100.00;98417.25;4469097;32;20237;-66
2023/04/07 05:13:12;;;;;;;27.67;13.90;;;;;;;2.17;100.00;98419.31;4469330;32;20104;-66
2023/04/07 05:15:42;;;;;;;26.58;13.57;;;;;;;2.16;100.00;98433.97;4469191;32;20104;-66
2023/04/07 05:18:09;;;;;;;27.42;14.40;;;;;;;2.10;100.00;98429.16;4469178;32;20480;-66
2023/04/07 05:20:38;;;;;;;27.05;13.10;;;;;;;2.12;100.00;98438.50;4468836;32;20491;-66
2023/04/07 05:23:05;;;;;;;29.67;14.02;;;;;;;2.24;100.00;98436.09;4469103;32;20105;-66
2023/04/07 05:25:33;;;;;;;27.58;13.85;;;;;;;2.24;100.00;98443.84;4469089;32;20480;-66
2023/04/07 05:28:02;;;;;;;31.12;13.68;;;;;;;2.23;100.00;98431.84;4468976;32;20152;-66
2023/04/07 05:30:30;;;;;;;28.95;14.07;;;;;;;2.25;100.00;98425.66;4468987;32;20089;-66
2023/04/07 05:32:57;;;;;;;34.47;15.15;;;;;;;2.21;100.00;98424.19;4469045;32;20166;-66
2023/04/07 05:35:26;;;;;;;31.10;15.07;;;;;;;2.17;100.00;98421.91;4468981;32;20122;-66
2023/04/07 05:37:53;;;;;;;35.03;15.10;;;;;;;2.16;100.00;98433.97;4468860;32;20137;-66
2023/04/07 05:40:20;;;;;;;26.70;13.73;;;;;;;2.20;100.00;98443.19;4470870;32;20097;-66
2023/04/07 05:42:48;;;;;;;33.45;14.48;;;;;;;2.29;100.00;98447.00;4470937;32;20101;-66
2023/04/07 05:45:16;;;;;;;35.28;14.77;;;;;;;2.30;100.00;98448.63;4470660;32;20092;-66
2023/04/07 05:47:46;;;;;;;31.75;14.50;;;;;;;2.30;100.00;98457.22;4470879;32;20511;-66
2023/04/07 05:50:13;;;;;;;22.85;12.75;;;;;;;2.34;100.00;98446.72;4470870;32;20185;-66
2023/04/07 05:52:41;;;;;;;25.60;14.52;;;;;;;2.41;100.00;98440.25;4470732;32;20101;-66
2023/04/07 05:55:11;;;;;;;32.60;16.75;;;;;;;2.41;100.00;98451.41;4470681;32;20446;-66
2023/04/07 05:57:38;;;;;;;35.58;16.02;;;;;;;2.41;100.00;98451.41;4470516;32;20160;-66
2023/04/07 06:00:06;;;;;;;33.90;16.02;;;;;;;2.53;100.00;98444.66;4470477;32;20153;-66
2023/04/07 06:02:40;;;;;;;35.97;15.63;;;;;;;2.47;100.00;98440.69;4470547;32;20096;-66
2023/04/07 06:05:09;;;;;;;27.42;14.45;;;;;;;2.45;100.00;98441.69;4470479;32;20152;-66
2023/04/07 06:07:38;;;;;;;29.98;13.10;;;;;;;2.46;100.00;98449.38;4470571;32;20435;-66
2023/04/07 06:10:07;;;;;;;27.52;13.93;;;;;;;2.52;100.00;98448.16;4470570;32;20112;-66
2023/04/07 06:12:35;;;;;;;33.25;14.48;;;;;;;2.73;100.00;98434.84;4470304;32;20105;-66
2023/04/07 06:15:02;;;;;;;33.45;15.07;;;;;;;2.83;100.00;98436.75;4470226;32;20473;-66
2023/04/07 06:17:29;;;;;;;29.95;14.82;;;;;;;2.90;100.00;98436.38;4470298;32;20118;-66
2023/04/07 06:19:57;;;;;;;29.77;13.62;;;;;;;2.79;100.00;98439.63;4470258;32;20421;-66
2023/04/07 06:22:24;;;;;;;32.00;14.77;;;;;;;2.82;100.00;98442.84;4470302;32;20121;-66
2023/04/07 06:24:51;;;;;;;34.15;14.70;;;;;;;2.90;100.00;98444.94;4469983;32;20105;-66
2023/04/07 06:27:20;;;;;;;30.67;15.00;;;;;;;2.80;100.00;98436.94;4470358;32;20540;-66
2023/04/07 06:29:47;;;;;;;29.05;14.05;;;;;;;2.86;100.00;98440.88;4468705;32;20093;-66
2023/04/07 06:32:14;;;;;;;32.45;14.85;;;;;;;2.90;100.00;98449.28;4468918;32;20093;-66
2023/04/07 06:34:42;;;;;;;31.35;15.35;;;;;;;2.80;100.00;98449.88;4469898;32;20093;-66
2023/04/07 06:37:09;;;;;;;32.47;15.23;;;;;;;2.74;100.00;98441.66;4470102;32;20115;-66
2023/04/07 06:39:37;;;;;;;34.65;14.75;;;;;;;2.83;100.00;98444.50;4469977;32;20081;-66
2023/04/07 06:42:04;;;;;;;29.58;14.57;;;;;;;2.88;100.00;98451.97;4470154;32;20104;-66
2023/04/07 06:44:34;;;;;;;34.47;14.52;;;;;;;2.93;100.00;98437.00;4470279;32;20495;-66
2023/04/07 06:47:01;;;;;;;34.08;14.93;;;;;;;2.95;100.00;98455.00;4470160;32;20096;-66
2023/04/07 06:49:29;;;;;;;36.17;15.32;;;;;;;3.00;100.00;98458.97;4469511;32;20156;-66
2023/04/07 06:51:56;;;;;;;31.42;14.35;;;;;;;3.12;100.00;98457.38;4470049;32;20085;-66
2023/04/07 06:54:23;;;;;;;32.10;14.48;;;;;;;3.08;100.00;98458.47;4470109;32;20168;-66
2023/04/07 06:56:51;;;;;;;27.98;14.73;;;;;;;3.16;100.00;98461.44;4469976;32;20472;-66
2023/04/07 06:59:20;;;;;;;26.12;14.02;;;;;;;3.39;100.00;98466.84;4470210;32;20164;-66
2023/04/07 07:01:48;;;;;;;30.20;13.88;;;;;;;3.46;100.00;98467.31;4469976;32;20646;-66
2023/04/07 07:04:15;;;;;;;32.65;15.75;;;;;;;3.64;100.00;98479.06;4470062;32;20093;-66
2023/04/07 07:06:42;;;;;;;31.30;14.98;;;;;;;3.83;100.00;98472.66;4469690;32;20152;-66
2023/04/07 07:09:10;;;;;;;30.80;14.13;;;;;;;3.96;100.00;98483.03;4470189;32;20097;-66
2023/04/07 07:11:39;;;;;;;27.70;13.85;;;;;;;3.83;100.00;98491.63;4469966;32;20104;-66
2023/04/07 07:14:06;;;;;;;26.52;13.45;;;;;;;4.03;100.00;98487.72;4469713;32;20157;-66
2023/04/07 07:16:36;;;;;;;29.08;13.23;;;;;;;3.97;100.00;98495.91;4469880;32;20116;-66
2023/04/07 07:19:03;;;;;;;30.42;14.10;;;;;;;3.97;100.00;98495.09;4469877;32;20172;-66
2023/04/07 07:21:30;;;;;;;30.80;15.60;;;;;;;3.88;100.00;98501.69;4469836;32;20085;-66
2023/04/07 07:23:57;;;;;;;30.25;15.23;;;;;;;4.01;100.00;98507.72;4469853;32;20104;-66
2023/04/07 07:26:26;;;;;;;30.33;15.40;;;;;;;3.86;100.00;98501.78;4469698;32;20135;-66
2023/04/07 07:28:53;;;;;;;35.95;15.93;;;;;;;3.95;100.00;98513.31;4469702;32;20097;-66
2023/04/07 07:31:20;;;;;;;30.92;15.10;;;;;;;4.11;100.00;98518.31;4469825;32;20152;-67
2023/04/07 07:33:48;;;;;;;27.62;13.52;;;;;;;4.05;100.00;98514.34;4469674;32;20209;-66
2023/04/07 07:36:16;;;;;;;26.50;14.23;;;;;;;4.02;100.00;98514.56;4469750;32;20172;-66
2023/04/07 07:38:43;;;;;;;29.35;13.38;;;;;;;4.16;100.00;98521.41;4468322;32;20418;-67
2023/04/07 07:41:11;;;;;;;27.75;13.62;;;;;;;4.26;100.00;98526.81;4468479;32;20108;-67
2023/04/07 07:43:38;;;;;;;28.02;13.27;;;;;;;4.30;100.00;98528.28;4469962;32;20115;-67
2023/04/07 07:46:05;;;;;;;25.37;13.65;;;;;;;4.61;100.00;98524.41;4469608;32;20742;-66
2023/04/07 07:48:32;;;;;;;33.05;13.60;;;;;;;4.88;100.00;98526.03;4469652;32;20097;-66
2023/04/07 07:50:59;;;;;;;32.47;14.40;;;;;;;4.59;100.00;98534.06;4469573;32;20148;-66
2023/04/07 07:53:26;;;;;;;30.77;15.63;;;;;;;4.67;100.00;98524.94;4469912;32;20096;-66
2023/04/07 07:55:54;;;;;;;26.35;14.00;;;;;;;4.76;100.00;98538.09;4469483;32;20111;-66
2023/04/07 07:58:22;;;;;;;31.33;14.25;;;;;;;4.87;100.00;98534.75;4469949;32;20403;-67
2023/04/07 08:00:49;;;;;;;29.77;13.30;;;;;;;4.99;100.00;98535.66;4469475;32;20116;-67
2023/04/07 08:03:18;;;;;;;29.27;15.02;;;;;;;5.13;100.00;98547.66;4469819;32;20500;-66
2023/04/07 08:05:47;;;;;;;31.70;15.05;;;;;;;5.19;100.00;98547.25;4469299;32;20089;-67
2023/04/07 08:08:15;;;;;;;27.80;14.02;;;;;;;4.97;100.00;98553.13;4469469;32;20559;-66
2023/04/07 08:10:42;;;;;;;26.98;13.93;;;;;;;5.02;100.00;98545.84;4469383;32;20120;-67
2023/04/07 08:13:09;;;;;;;26.77;14.60;;;;;;;5.24;100.00;98558.16;4469635;32;20727;-67
2023/04/07 08:15:36;;;;;;;30.25;14.70;;;;;;;5.35;100.00;98557.38;4469526;32;20163;-66
2023/04/07 08:18:05;;;;;;;28.73;13.93;;;;;;;5.31;100.00;98561.97;4469615;32;20436;-66
2023/04/07 08:20:32;;;;;;;30.42;14.30;;;;;;;5.16;100.00;98563.03;4469600;32;20158;-66
2023/04/07 08:23:02;;;;;;;26.20;14.05;;;;;;;5.36;100.00;98559.06;4469689;32;20109;-66
2023/04/07 08:25:30;;;;;;;32.92;14.80;;;;;;;5.51;100.00;98563.16;4469360;32;20110;-67
2023/04/07 08:27:57;;;;;;;30.92;14.48;;;;;;;5.45;100.00;98558.38;4469450;32;20111;-67
2023/04/07 08:30:24;;;;;;;30.67;14.77;;;;;;;5.61;100.00;98562.47;4469448;32;20513;-67
2023/04/07 08:32:52;;;;;;;30.58;15.00;;;;;;;5.20;100.00;98563.66;4468337;32;20164;-67
2023/04/07 08:35:19;;;;;;;25.62;13.50;;;;;;;5.22;100.00;98565.19;4469367;32;20110;-66
2023/04/07 08:37:46;;;;;;;28.58;14.43;;;;;;;5.21;100.00;98570.50;4469198;32;20093;-67
2023/04/07 08:40:14;;;;;;;28.27;13.52;;;;;;;4.98;100.00;98575.53;4469363;32;20100;-67
2023/04/07 08:42:44;;;;;;;29.87;13.85;;;;;;;4.77;100.00;98570.91;4469354;32;20468;-66
2023/04/07 08:45:12;;;;;;;30.67;15.50;;;;;;;4.82;100.00;98569.78;4468346;32;20955;-67
2023/04/07 08:47:40;;;;;;;31.80;16.42;;;;;;;4.80;100.00;98568.09;4469349;32;20145;-67
2023/04/07 08:50:09;;;;;;;32.22;14.52;;;;;;;4.86;100.00;98566.00;4469328;32;20097;-66
2023/04/07 08:52:52;;;;;;;28.10;14.75;;;;;;;4.83;100.00;98576.59;4468170;32;20165;-66
2023/04/07 08:55:20;;;;;;;28.00;13.32;;;;;;;4.71;100.00;98578.25;4469089;32;20089;-66
2023/04/07 08:57:47;;;;;;;26.75;14.40;;;;;;;4.60;100.00;98581.59;4467904;32;20141;-66
2023/04/07 09:00:14;;;;;;;27.55;14.07;;;;;;;4.59;100.00;98575.59;4469026;32;20120;-67
2023/04/07 09:02:44;;;;;;;29.10;14.38;;;;;;;4.44;100.00;98568.84;4469402;32;20490;-66
2023/04/07 09:05:13;;;;;;;28.00;13.88;;;;;;;4.60;100.00;98569.47;4469033;32;20119;-67
2023/04/07 09:07:42;;;;;;;27.05;13.38;;;;;;;4.97;100.00;98568.69;4469143;32;20085;-66
2023/04/07 09:10:09;;;;;;;31.42;14.77;;;;;;;4.95;100.00;98576.59;4469436;32;20119;-66
2023/04/07 09:12:37;;;;;;;26.02;13.85;;;;;;;4.85;100.00;98566.97;4468541;32;20096;-66
2023/04/07 09:15:05;;;;;;;26.33;14.02;;;;;;;5.08;100.00;98565.34;4469085;32;20153;-67
2023/04/07 09:17:33;;;;;;;30.27;14.48;;;;;;;5.02;100.00;98576.16;4468937;32;20100;-66
2023/04/07 09:20:01;;;;;;;32.75;14.18;;;;;;;5.01;100.00;98575.34;4469224;32;20108;-67
2023/04/07 09:22:41;;;;;;;26.25;14.05;;;;;;;5.33;100.00;98565.28;4468878;32;20450;-66
2023/04/07 09:25:14;;;;;;;24.17;13.50;;;;;;;5.55;100.00;98573.31;4468684;32;20092;-67
2023/04/07 09:28:02;;;;;;;28.42;14.05;;;;;;;5.68;100.00;98574.09;4468952;32;20148;-67
2023/04/07 09:30:31;;;;;;;26.48;13.40;;;;;;;5.72;100.00;98578.09;4468853;32;20470;-67
2023/04/07 09:32:59;;;;;;;27.02;13.35;;;;;;;5.76;100.00;98584.75;4467668;32;20426;-66
2023/04/07 09:35:28;;;;;;;26.83;13.25;;;;;;;5.70;100.00;98577.41;4454559;32;20119;-66
2023/04/07 09:38:06;;;;;;;26.35;13.93;;;;;;;5.81;100.00;98574.03;4467695;32;20127;-66
2023/04/07 09:40:35;;;;;;;30.23;14.40;;;;;;;6.09;100.00;98578.06;4468875;32;20450;-67
2023/04/07 09:43:06;;;;;;;25.27;12.75;;;;;;;6.05;100.00;98579.22;4468756;32;20453;-67
2023/04/07 09:45:34;;;;;;;24.67;12.43;;;;;;;5.81;100.00;98580.06;4468732;32;20488;-67
2023/04/07 09:48:17;;;;;;;26.50;13.13;;;;;;;6.25;100.00;98579.53;4468653;32;20446;-66
2023/04/07 09:50:48;;;;;;;28.23;12.77;;;;;;;6.43;100.00;98585.13;4468595;32;20174;-67
2023/04/07 09:53:17;;;;;;;24.70;12.63;;;;;;;6.58;100.00;98581.38;4467413;32;20105;-67
2023/04/07 09:55:44;;;;;;;23.23;12.35;;;;;;;6.50;100.00;98581.94;4468167;32;20107;-67
2023/04/07 09:58:13;;;;;;;25.98;11.85;;;;;;;6.96;100.00;98581.97;4468403;32;20568;-67
2023/04/07 10:00:41;;;;;;;22.13;12.32;;;;;;;7.13;98.92;98584.13;4468329;32;20454;-67
2023/04/07 10:03:08;;;;;;;24.05;12.45;;;;;;;7.15;100.00;98579.59;4468312;32;20093;-67
2023/04/07 10:05:36;;;;;;;22.33;12.07;;;;;;;6.94;97.54;98584.72;4466747;32;20541;-67
2023/04/07 10:08:05;;;;;;;24.02;12.37;;;;;;;7.04;94.66;98584.81;4467965;32;20600;-67
2023/04/07 10:10:34;;;;;;;24.80;12.43;;;;;;;6.78;97.39;98579.84;4468283;32;20744;-67
2023/04/07 10:13:03;;;;;;;21.55;12.15;;;;;;;6.45;100.00;98578.03;4468012;32;20101;-67
2023/04/07 10:15:31;;;;;;;23.55;12.82;;;;;;;6.61;100.00;98583.72;4468015;32;20096;-67
2023/04/07 10:17:58;;;;;;;20.50;11.75;;;;;;;6.57;100.00;98572.75;4467927;32;20113;-67
2023/04/07 10:20:26;;;;;;;25.80;13.55;;;;;;;6.41;100.00;98576.63;4466991;32;20128;-67
2023/04/07 10:22:54;;;;;;;20.60;12.07;;;;;;;6.42;100.00;98584.31;4466905;32;20608;-67
2023/04/07 10:25:23;;;;;;;24.48;13.70;;;;;;;6.61;100.00;98575.09;4468833;32;20118;-67
2023/04/07 10:27:54;;;;;;;23.48;12.32;;;;;;;6.80;100.00;98572.75;4469133;32;20088;-67
2023/04/07 10:30:29;;;;;;;26.10;12.55;;;;;;;6.92;100.00;98577.00;4468946;32;20185;-67
2023/04/07 10:32:56;;;;;;;23.92;12.90;;;;;;;7.09;100.00;98577.47;4469072;32;20147;-67
2023/04/07 10:35:24;;;;;;;25.02;14.05;;;;;;;7.34;99.01;98578.16;4470310;32;20106;-67
2023/04/07 10:38:07;;;;;;;22.45;13.27;;;;;;;7.59;98.93;98575.25;4469944;32;20089;-67
2023/04/07 10:40:36;;;;;;;22.65;12.40;;;;;;;7.62;95.22;98579.41;4470529;32;20579;-67
2023/04/07 10:43:03;;;;;;;25.58;13.85;;;;;;;7.75;96.56;98574.00;4470287;32;20438;-67
2023/04/07 10:45:47;;;;;;;23.02;12.48;;;;;;;7.86;97.05;98581.81;4470506;32;20160;-67
2023/04/07 10:48:16;;;;;;;22.27;13.18;;;;;;;7.91;93.75;98584.03;4470085;32;20141;-67
2023/04/07 10:51:06;;;;;;;23.40;12.15;;;;;;;7.76;95.39;98586.09;4470266;32;20097;-67
2023/04/07 10:53:34;;;;;;;27.87;14.15;;;;;;;7.76;96.83;98580.91;4470065;32;20123;-67
2023/04/07 10:56:01;;;;;;;23.92;12.63;;;;;;;7.63;95.23;98581.88;4469831;32;20527;-67
2023/04/07 10:58:29;;;;;;;21.48;12.30;;;;;;;7.60;95.09;98579.53;4470318;32;20104;-67
2023/04/07 11:01:03;;;;;;;22.52;12.70;;;;;;;7.46;96.02;98572.81;4470189;32;20123;-67
2023/04/07 11:03:35;;;;;;;23.17;12.23;;;;;;;7.73;95.90;98581.97;4470398;32;20081;-67
2023/04/07 11:06:04;;;;;;;21.55;12.07;;;;;;;7.66;94.48;98572.16;4469794;32;20123;-67
2023/04/07 11:08:39;;;;;;;19.77;12.27;;;;;;;7.68;94.25;98578.91;4469847;32;20097;-67
2023/04/07 11:11:08;;;;;;;21.77;12.05;;;;;;;7.76;94.47;98579.09;4470422;32;20394;-67
2023/04/07 11:13:49;;;;;;;20.52;11.30;;;;;;;8.02;93.68;98577.94;4470048;32;20465;-67
2023/04/07 11:16:18;;;;;;;21.42;11.70;;;;;;;8.01;93.69;98582.34;4470032;32;20439;-67
2023/04/07 11:18:46;;;;;;;21.20;12.15;;;;;;;7.92;92.22;98586.53;4469721;32;20107;-67
2023/04/07 11:21:18;;;;;;;23.20;13.25;;;;;;;7.78;92.29;98586.81;4470000;32;20158;-67
2023/04/07 11:23:46;;;;;;;19.92;11.93;;;;;;;7.69;94.90;98585.78;4469967;32;20100;-67
2023/04/07 11:26:15;;;;;;;24.37;12.90;;;;;;;7.76;94.28;98591.31;4469777;32;20089;-67